Valentino Lombardo

Jefe de ojeadores - Frosinone
3 Dic 2028
Domingo
Continuar

Personalidad

Adaptabilidad (8) Ambición (14) Controversia (6) Lealtad (5) Presión (8) Profesionalismo (16) Deportividad (9) Temperamento (3)

Perfil

Estilo de dirección Democrático
Licencia Continental A
Determinación 8
Gestión de personas 11
Motivación 11
Disciplina 12
Satisfacción laboral
100%
Fatiga
0%
Cargo Jefe de ojeadores
Salario 81.8K p/s
Contrato 14.03.2029

Rendimiento

Comportamiento Bueno
Efectividad del entrenamiento
43%
Desarrollo de jugadores
50%
Prevención de lesiones
35%
Implementación táctica
20%

Eventos recientes

Asistió a una reunión de captación ahora
Recomendó un objetivo de fichaje ahora
Asistió a una reunión de captación 7d atrás
Recomendó un objetivo de fichaje 7d atrás
Asistió a una reunión de captación 7d atrás
Asistió a una reunión de captación 7d atrás
Asistió a una reunión de captación 14d atrás
Asistió a una reunión de captación 14d atrás

Actualmente siguiendo

168
Jugador Club Estado Habilidad Confianza Observado Última observación Último voto
Keita Baldé Monza Activo 137 / 137 42% 1 / 1m 01.11.2028 -
Trey Nyoni Rotherham United Activo 140 / 151 40% 5 29.08.2028 -
Branimir Mlačić Udinese Activo 126 / 128 40% 1 29.08.2028 -
Mirza Ćatović VfB Stuttgart Activo 129 / 129 40% 1 29.08.2028 -
Alessandro Raimo Catania Informe listo 109 / 103 83% 1 28.08.2028 -
Celías Ingenthron Platense Activo 120 / 129 40% 1 21.08.2028 -
Johan Solstad-Nøis Tromso Activo 103 / 98 40% 1 21.08.2028 -
Honest Ahanor Atalanta Activo 136 / 142 40% 1 21.08.2028 -
Gianluca Caprari Padova Informe listo 123 / 121 83% 1 07.08.2028 -
Luka Vušković Tottenham Activo 150 / 160 40% 2 31.07.2028 -
Riquelme Thompson-Jones Accrington Stanley Activo 113 / 120 40% 8 31.07.2028 -
Tyler Fletcher Rotherham United Activo 114 / 126 40% 3 31.07.2028 -
Kiani Inge Groningen Activo 116 / 120 40% 5 26.06.2028 -
Ayden Heaven Portsmouth Activo 148 / 147 40% 9 26.06.2028 -
Christos Mouzakitis Hull City Activo 141 / 145 40% 4 11.06.2028 -
Augusto Bando Ascoli Activo 110 / 113 40% 4 31.05.2028 -
Nicolò Moranduzzo Renate Activo 90 / 93 40% 5 30.05.2028 -
Giovanni Leoni Lincoln City Activo 144 / 141 40% 5 29.05.2028 -
Josh Nichols Oldham Athletic Activo 123 / 125 40% 2 20.05.2028 -
Amine Boukamir Charleroi Activo 105 / 115 40% 3 19.05.2028 -
Bernardo Lima Porto Activo 107 / 119 40% 6 19.05.2028 -
Jan Bürger Northampton Town Activo 120 / 120 40% 6 17.05.2028 -
Olivier Leroux Mouscron Activo 106 / 108 40% 17 13.05.2028 -
Daniel Banjaqui Benfica Activo 124 / 133 40% 5 13.05.2028 -
Raul Tassoni Catanzaro Activo 100 / 102 40% 1 04.05.2028 -
Jorthy Mokio ADO Den Haag Activo 131 / 140 40% 5 21.04.2028 -
Andrea Bertoncini Triestina Activo 96 / 107 40% 6 19.04.2028 -
Josh Acheampong Everton Activo 140 / 142 40% 5 19.04.2028 -
Federico Matarán Giana Erminio Activo 102 / 108 40% 8 17.04.2028 -
Alessio Insignito Spezia Activo 106 / 115 40% 2 17.04.2028 -
Andrea Cogoni Cosenza Activo 112 / 120 40% 4 17.04.2028 -
Martim Cunha Porto Activo 107 / 118 40% 11 15.04.2028 -
Miguel Figueiredo Benfica Activo 116 / 125 40% 7 13.04.2028 -
Tobiáš Pališčák Zlin Activo 95 / 116 40% 2 13.03.2028 -
Matvey Bardachev Zenit Activo 106 / 112 40% 3 08.03.2028 -
Olivier Mambwa Young Boys Activo 111 / 114 40% 2 28.02.2028 -
Andrey Ivlev Nizhniy Novgorod Activo 105 / 113 40% 1 17.02.2028 -
Colin Guske Orlando City Activo 96 / 108 40% 1 11.02.2028 -
Mao Hosoya Santos Activo 134 / 135 67% 1 01.01.2028 -
Kwesi Sorotu Badori Berekum Chelsea Activo 94 / 94 40% 2 31.12.2027 -
Yury Oyarzo Racing Activo 85 / 104 40% 1 31.12.2027 -
Nicolas Sport Recife Activo 112 / 105 40% 2 30.12.2027 -
Niccolò Fortini Fiorentina Activo 138 / 148 40% 1 29.12.2027 -
Victor Hernandez Santa Fe Activo 117 / 138 40% 6 28.12.2027 -
Juan Camilo Córdoba Deportivo Pereira Activo 86 / 106 40% 1 28.12.2027 -
Pedro Vian Seewald Dolomiti Bellunesi Activo 99 / 112 40% 4 25.12.2027 -
Ignacio Fernández Boston River Activo 89 / 95 40% 2 24.12.2027 -
Jon Esenga IF Elfsborg Activo 94 / 115 40% 2 24.12.2027 -
Joel Ezra Enyimba Activo 89 / 100 40% 2 22.12.2027 -
Diego Vargas Universidad de Concepcion Activo 100 / 110 40% 1 18.12.2027 -
Hugo Rojas Instituto Activo 108 / 100 40% 2 17.12.2027 -
Lucas Camejo River Plate Activo 81 / 98 40% 2 15.12.2027 -
Frederik Damkjer Viborg Activo 88 / 90 40% 1 14.12.2027 -
Francisco Triver River Plate Activo 93 / 101 40% 1 13.12.2027 -
Kerim Alajbegović Modena Activo 136 / 145 40% 3 12.12.2027 -
Musa Malik Ikorodu City Activo 96 / 105 40% 4 12.12.2027 -
Ousseynou Seck Randers Activo 115 / 128 40% 1 12.12.2027 -
Emmanuel Ndubueze Shooting Stars Activo 84 / 102 40% 2 09.12.2027 -
Joseph Abah Remo Stars Activo 87 / 104 40% 1 09.12.2027 -
Luis Yanes Real Cartagena Activo 84 / 86 40% 1 08.12.2027 -
Chimobi Igwilo Rangers International Activo 90 / 92 40% 1 08.12.2027 -
Alphadjo Cissé Lecce Activo 132 / 136 40% 2 07.12.2027 -
Nupe Godstime Bayelsa United Activo 96 / 104 40% 1 07.12.2027 -
Kabiru Abdullahi Barau Activo 82 / 90 40% 3 06.12.2027 -
Pedro Baltika Activo 137 / 147 40% 1 04.12.2027 -
Giovanni Baroni Talleres Activo 116 / 112 40% 1 30.11.2027 -
Sindre Walle Egeli Udinese Activo 138 / 133 40% 2 29.11.2027 -
Gianluca Prestianni Benfica Activo 144 / 145 40% 2 29.11.2027 -
Alex Verón Vélez Activo 107 / 129 40% 1 29.11.2027 -
Matías Arias Vélez Activo 119 / 111 40% 2 28.11.2027 -
Francisco Marchant Colo-Colo Activo 97 / 89 40% 1 27.11.2027 -
Tiago Pucciarelli IF Elfsborg Activo 103 / 93 40% 2 26.11.2027 -
Abdulrahman Hamisu Niger Tornadoes Activo 88 / 100 40% 2 25.11.2027 -
Ruben Ramos LA Galaxy Activo 105 / 109 40% 1 22.11.2027 -
Tomás Aranda Boca Juniors Activo 117 / 122 40% 1 21.11.2027 -
Keyano Marrah Hammarby Activo 95 / 89 40% 1 20.11.2027 -
Idris Ajiya Nasarawa United Activo 78 / 82 40% 1 20.11.2027 -
Elion Krosa Odd Activo 82 / 103 40% 1 19.11.2027 -
Roberto Insigne Catania Activo 112 / 109 79% 1 02.08.2027 -
Kike Pérez Venezia Activo 133 / 132 79% 1 01.06.2027 -
Sascha Britschgi AC Milan Activo 124 / 126 40% 7 30.05.2027 -
Riyad Idrissi Cagliari Activo 121 / 129 40% 6 27.05.2027 -
Riley Owen Stevenage Activo 101 / 101 40% 4 27.05.2027 -
Samuele di Benedetto Twente Activo 113 / 120 40% 2 26.05.2027 -
Ezra Mayers West Ham United Activo 116 / 121 40% 2 24.05.2027 -
Hosea Michael Remo Stars Activo 81 / 102 40% 1 24.05.2027 -
Bence Dárdai VfL Wolfsburg Activo 132 / 129 40% 3 22.05.2027 -
Kazunari Kita Real Sociedad Activo 102 / 110 40% 6 20.05.2027 -
Tiago Freitas Benfica Activo 108 / 109 40% 6 16.05.2027 -
Jacopo Bacci Sorrento Activo 103 / 110 40% 2 12.05.2027 -
David Ozoh Derby County Activo 116 / 123 40% 2 19.04.2027 -
Tommaso Cecotti Carpi Activo 92 / 98 40% 5 15.04.2027 -
Charlie Gray Fleetwood Town Activo 94 / 90 40% 1 12.04.2027 -
Leandro Martins Benfica Activo 95 / 100 40% 4 09.04.2027 -
Gonçalo Oliveira Benfica Activo 109 / 113 40% 5 07.04.2027 -
Afriyie Sulemana WAFA Activo 90 / 94 40% 2 01.04.2027 -
Alessandro Zoboletti Sambenedettese Activo 92 / 90 40% 7 30.03.2027 -
Konta Ismaily Activo 94 / 100 40% 1 25.03.2027 -
Samuele Diodato Lumezzane Activo 87 / 97 40% 1 04.03.2027 -
Edwin Asamoah Berekum Chelsea Activo 86 / 98 40% 4 26.02.2027 -
Federico Valentini Forli Activo 89 / 88 40% 2 22.02.2027 -
Cemran Dansin Orlando Pirates Activo 107 / 116 40% 1 09.02.2027 -
Kamaldeen Atiemo Wa All Stars Activo 105 / 109 40% 1 08.02.2027 -
Simphiwe Selepe Orlando Pirates Activo 110 / 116 40% 1 03.02.2027 -
Sampson Dweh Mallorca Activo 133 / 134 66% 1 01.01.2027 -
Amin Sarr Hellas Verona Activo 131 / 120 40% 6 31.12.2026 Observar
Luca Moro Padova Activo 123 / 112 40% 4 31.12.2026 -
Wandile Duba ASO Chlef Activo 110 / 111 40% 1 31.12.2026 -
Pontus Almqvist Parma Activo 132 / 121 40% 1 30.12.2026 -
Armstrong Oko-Flex Levski Activo 117 / 127 40% 1 30.12.2026 -
Nicolò Fagioli Fiorentina Activo 141 / 147 40% 1 26.12.2026 -
Kirill Glebov CSKA Moscow Activo 123 / 116 40% 2 25.12.2026 -
Marcelo Allende Mamelodi Sundowns Activo 136 / 136 40% 1 25.12.2026 -
Vitinha Genoa Activo 129 / 135 40% 2 23.12.2026 -
Ivo Mammini Beitar Jerusalem Activo 115 / 117 40% 3 22.12.2026 -
Etiosa Ighodaro Kaizer Chiefs Activo 108 / 102 40% 2 21.12.2026 -
Matteo Rover Reggiana Activo 123 / 123 40% 1 20.12.2026 -
Giuseppe Di Serio Spezia Activo 117 / 111 40% 1 18.12.2026 -
Santiago Pierotti Lecce Activo 134 / 126 40% 4 17.12.2026 -
Yeangel Montero Naxxar Lions Activo 110 / 94 40% 1 15.12.2026 -
Lassina Traoré Shakhtar Activo 123 / 123 40% 1 14.12.2026 -
Matheus Davó Maccabi Netanya Activo 115 / 108 40% 1 13.12.2026 -
Talles Magno New York City Activo 124 / 119 40% 3 12.12.2026 -
Stiven Shpendi Empoli Activo 114 / 119 40% 6 12.12.2026 -
Lewis Ferguson Bologna Activo 144 / 146 40% 1 12.12.2026 -
Lorenzo Colombo Genoa Activo 133 / 142 40% 5 11.12.2026 -
Gianluca Scamacca Atalanta Activo 147 / 153 40% 2 11.12.2026 -
Radek Šiler Podbrezova Activo 112 / 112 40% 1 11.12.2026 -
Nicolò Zaniolo Udinese Activo 140 / 140 40% 8 06.12.2026 -
Andrea Colpani Monza Activo 137 / 143 40% 2 06.12.2026 -
Mehdi Dorval Catanzaro Activo 132 / 122 40% 1 06.12.2026 -
Mattia Felici Cagliari Activo 124 / 131 40% 1 04.12.2026 -
Suleiman Camara Slovan Bratislava Activo 118 / 123 40% 1 03.12.2026 -
Matej Trusa DAC Dunajska Streda Activo 110 / 120 40% 2 01.12.2026 -
Wessam Abou Ali Columbus Crew Activo 128 / 127 40% 4 24.11.2026 -
Giacomo Raspadori Atalanta Activo 143 / 147 40% 1 21.11.2026 -
Bienvenue Kanakimana Zbrojovka Brno Activo 124 / 124 40% 1 19.11.2026 -
Sota Kitano Red Bull Salzburg Activo 119 / 128 40% 3 18.11.2026 Observar
Tadeo Allende Inter Miami CF Activo 128 / 135 40% 3 17.11.2026 -
Don Bolsius Ascoli Activo 108 / 96 40% 1 17.11.2026 -
Willem Geubbels Lecce Activo 125 / 127 40% 3 14.11.2026 -
Jens Petter Hauge Bodo/Glimt Activo 148 / 137 40% 1 14.11.2026 -
Marco Pašalić Orlando City Activo 123 / 128 40% 1 11.11.2026 -
David Miculescu FCSB Activo 113 / 111 40% 2 05.11.2026 -
Bradley Zwane SuperSport United Activo 117 / 108 40% 1 04.11.2026 -
Tommaso Pobega Bologna Activo 139 / 140 40% 2 03.11.2026 -
Kelvin Yeboah Minnesota United FC Activo 132 / 130 40% 1 30.10.2026 -
Marco Tumminello Benevento Activo 110 / 109 40% 2 29.10.2026 -
Germán Berterame Inter Miami CF Activo 132 / 129 40% 2 29.10.2026 -
Reda Khadra Qarabag Activo 131 / 124 40% 1 27.10.2026 -
André Wolverhampton Activo 137 / 149 40% 1 27.10.2026 -
Tyrese Campbell Sheffield United Activo 126 / 130 40% 3 25.10.2026 -
Bénie Traoré New York City Activo 122 / 138 40% 1 21.10.2026 -
Assad Al Hamlawi Universitatea Craiova Activo 127 / 108 40% 1 20.10.2026 -
Kwadwo Baah Watford Activo 130 / 125 40% 1 19.10.2026 -
Ramiro Ruiz Rodríguez Atlético Tucumán Activo 121 / 127 40% 1 13.10.2026 -
Jesus Ferreira Seattle Sounders Activo 124 / 124 40% 1 12.10.2026 -
Jackson Muleka Konyaspor Activo 121 / 111 40% 1 12.10.2026 -
Lucas Da Cunha Como Activo 138 / 143 40% 1 11.10.2026 -
Joshua Zirkzee Manchester United Activo 141 / 147 40% 1 07.10.2026 -
Duk Atlas Activo 109 / 102 40% 1 06.10.2026 -
Alejandro Piedrahita Deportivo Pereira Activo 129 / 133 40% 1 06.10.2026 -
Matt O'Riley Brighton Activo 140 / 142 40% 1 06.10.2026 -
Florentino Luís Ipswich Town Activo 139 / 144 40% 1 06.10.2026 -
Edoardo Pieragnolo Sassuolo Activo 125 / 129 76% 1 17.08.2026 Aprobar
Mateus Mané Burnley Activo 127 / 144 40% 1 17.08.2026 -
Ignacio Perruzzi San Lorenzo Activo 119 / 132 40% 1 11.08.2026 -
Lucas Bergvall Tottenham Activo 142 / 156 40% 1 01.08.2026 -